KPIE/PIE METAR and TAF weather

Enter ICAO airport designator
Station Type Date Time Source
KPIE METAR 2020/07/15 03:53 UTC NOAA

KPIE 150353Z AUTO 26004KT 10SM CLR 29/25 A3006 RMK AO2 SLP180 T02940250


Station Type Date Time Source
KPIE Decoded METAR 2020/07/15 03:53 UTC NOAA

ST PETERSBURG/CLEARWATER, FL, United States (KPIE) 27-55N 82-41W 4M
Jul 14, 2020 - 11:53 PM EDT / 2020.07.15 0353 UTC
Wind: from the W (260 degrees) at 5 MPH (4 KT):0
Visibility: 10 mile(s):0
Sky conditions: clear
Temperature: 84.9 F (29.4 C)
Dew Point: 77.0 F (25.0 C)
Relative Humidity: 77%
Pressure (altimeter): 30.06 in. Hg (1017 hPa)
ob: KPIE 150353Z AUTO 26004KT 10SM CLR 29/25 A3006 RMK AO2 SLP180 T02940250
cycle: 4

Station Type Date Time Source
KPIE TAF 2020/07/14 18:39 UTC NOAA

TAF KPIE 141736Z 1418/1518 28007KT P6SM VCTS SCT035CB BKN250
FM141900 27009KT P6SM SCT035 OVC250
FM150100 26005KT P6SM SCT020 BKN250
FM150600 VRB04KT P6SM SCT020 BKN250
FM151200 VRB04KT P6SM VCSH SCT020 BKN250
FM151500 33006KT P6SM VCTS SCT035CB BKN250

Example: see airport list